sensor_id;sensor_type;location;lat;lon;timestamp;pressure;altitude;pressure_sealevel;temperature;humidity
74790;BME280;63318;52.406;13.416;2022-09-09T00:02:03;100656.27;;;15.15;79.76
74790;BME280;63318;52.406;13.416;2022-09-09T00:04:34;100652.20;;;15.14;79.91
74790;BME280;63318;52.406;13.416;2022-09-09T00:07:07;100651.16;;;15.12;79.95
74790;BME280;63318;52.406;13.416;2022-09-09T00:09:44;100650.35;;;15.08;80.25
74790;BME280;63318;52.406;13.416;2022-09-09T00:12:17;100650.84;;;15.05;80.28
74790;BME280;63318;52.406;13.416;2022-09-09T00:14:53;100648.34;;;15.04;80.39
74790;BME280;63318;52.406;13.416;2022-09-09T00:17:34;100648.65;;;15.02;80.38
74790;BME280;63318;52.406;13.416;2022-09-09T00:20:12;100648.61;;;14.99;80.21
74790;BME280;63318;52.406;13.416;2022-09-09T00:22:45;100641.00;;;14.95;80.26
74790;BME280;63318;52.406;13.416;2022-09-09T00:25:21;100637.21;;;14.91;80.12
74790;BME280;63318;52.406;13.416;2022-09-09T00:27:52;100639.38;;;14.92;80.17
74790;BME280;63318;52.406;13.416;2022-09-09T00:30:22;100635.61;;;14.99;79.68
74790;BME280;63318;52.406;13.416;2022-09-09T00:32:52;100629.03;;;14.95;79.77
74790;BME280;63318;52.406;13.416;2022-09-09T00:35:24;100626.27;;;14.93;80.06
74790;BME280;63318;52.406;13.416;2022-09-09T00:37:55;100625.38;;;14.96;80.24
74790;BME280;63318;52.406;13.416;2022-09-09T00:40:24;100630.00;;;14.98;80.25
74790;BME280;63318;52.406;13.416;2022-09-09T00:43:03;100627.04;;;14.98;80.42
74790;BME280;63318;52.406;13.416;2022-09-09T00:45:54;100628.13;;;14.96;80.32
74790;BME280;63318;52.406;13.416;2022-09-09T00:48:30;100632.25;;;14.90;80.40
74790;BME280;63318;52.406;13.416;2022-09-09T00:51:08;100630.56;;;14.87;80.35
74790;BME280;63318;52.406;13.416;2022-09-09T00:53:41;100629.89;;;14.84;80.51
74790;BME280;63318;52.406;13.416;2022-09-09T00:56:14;100631.58;;;14.80;80.33
74790;BME280;63318;52.406;13.416;2022-09-09T00:58:52;100629.16;;;14.75;80.29
74790;BME280;63318;52.406;13.416;2022-09-09T01:01:23;100629.84;;;14.71;80.39
74790;BME280;63318;52.406;13.416;2022-09-09T01:03:54;100632.73;;;14.65;80.22
74790;BME280;63318;52.406;13.416;2022-09-09T01:06:28;100639.20;;;14.58;80.25
74790;BME280;63318;52.406;13.416;2022-09-09T01:09:10;100638.65;;;14.57;80.20
74790;BME280;63318;52.406;13.416;2022-09-09T01:11:46;100640.41;;;14.64;79.78
74790;BME280;63318;52.406;13.416;2022-09-09T01:14:28;100636.27;;;14.60;79.90
74790;BME280;63318;52.406;13.416;2022-09-09T01:17:01;100637.17;;;14.56;80.03
74790;BME280;63318;52.406;13.416;2022-09-09T01:19:40;100640.82;;;14.55;80.08
74790;BME280;63318;52.406;13.416;2022-09-09T01:22:18;100643.80;;;14.54;80.06
74790;BME280;63318;52.406;13.416;2022-09-09T01:25:07;100641.69;;;14.52;80.23
74790;BME280;63318;52.406;13.416;2022-09-09T01:27:38;100642.08;;;14.46;80.19
74790;BME280;63318;52.406;13.416;2022-09-09T01:30:10;100644.25;;;14.42;80.22
74790;BME280;63318;52.406;13.416;2022-09-09T01:32:42;100643.25;;;14.38;80.06
74790;BME280;63318;52.406;13.416;2022-09-09T01:35:14;100642.15;;;14.33;80.02
74790;BME280;63318;52.406;13.416;2022-09-09T01:37:44;100638.86;;;14.27;79.90
74790;BME280;63318;52.406;13.416;2022-09-09T01:40:12;100636.64;;;14.22;79.95
74790;BME280;63318;52.406;13.416;2022-09-09T01:42:40;100637.16;;;14.16;79.82
74790;BME280;63318;52.406;13.416;2022-09-09T01:45:10;100634.17;;;14.10;79.79
74790;BME280;63318;52.406;13.416;2022-09-09T01:47:38;100637.02;;;14.03;79.88
74790;BME280;63318;52.406;13.416;2022-09-09T01:50:08;100635.52;;;14.01;79.81
74790;BME280;63318;52.406;13.416;2022-09-09T01:52:38;100635.66;;;14.08;79.50
74790;BME280;63318;52.406;13.416;2022-09-09T01:55:08;100637.39;;;14.04;79.47
74790;BME280;63318;52.406;13.416;2022-09-09T01:57:41;100639.86;;;13.99;79.74
74790;BME280;63318;52.406;13.416;2022-09-09T02:00:15;100643.13;;;13.97;79.70
74790;BME280;63318;52.406;13.416;2022-09-09T02:02:52;100646.61;;;13.96;80.01
74790;BME280;63318;52.406;13.416;2022-09-09T02:05:32;100647.56;;;13.95;80.10
74790;BME280;63318;52.406;13.416;2022-09-09T02:08:08;100646.88;;;13.91;80.34
74790;BME280;63318;52.406;13.416;2022-09-09T02:10:42;100651.59;;;13.89;80.45
74790;BME280;63318;52.406;13.416;2022-09-09T02:13:16;100654.09;;;13.86;80.23
74790;BME280;63318;52.406;13.416;2022-09-09T02:15:50;100649.04;;;13.84;80.22
74790;BME280;63318;52.406;13.416;2022-09-09T02:18:26;100643.17;;;13.80;80.12
74790;BME280;63318;52.406;13.416;2022-09-09T02:20:55;100646.13;;;13.76;80.13
74790;BME280;63318;52.406;13.416;2022-09-09T02:23:25;100645.58;;;13.71;80.18
74790;BME280;63318;52.406;13.416;2022-09-09T02:25:54;100644.73;;;13.66;80.30
74790;BME280;63318;52.406;13.416;2022-09-09T02:28:26;100643.52;;;13.65;80.15
74790;BME280;63318;52.406;13.416;2022-09-09T02:30:56;100647.00;;;13.73;79.82
74790;BME280;63318;52.406;13.416;2022-09-09T02:33:27;100650.38;;;13.70;79.85
74790;BME280;63318;52.406;13.416;2022-09-09T02:35:57;100648.39;;;13.68;80.13
74790;BME280;63318;52.406;13.416;2022-09-09T02:38:30;100642.59;;;13.68;80.33
74790;BME280;63318;52.406;13.416;2022-09-09T02:41:00;100637.88;;;13.70;80.36
74790;BME280;63318;52.406;13.416;2022-09-09T02:43:32;100639.70;;;13.72;80.47
74790;BME280;63318;52.406;13.416;2022-09-09T02:46:07;100634.98;;;13.74;80.60
74790;BME280;63318;52.406;13.416;2022-09-09T02:48:44;100641.23;;;13.74;80.73
74790;BME280;63318;52.406;13.416;2022-09-09T02:51:21;100642.08;;;13.74;80.81
74790;BME280;63318;52.406;13.416;2022-09-09T02:53:57;100644.08;;;13.75;80.92
74790;BME280;63318;52.406;13.416;2022-09-09T02:56:31;100644.76;;;13.74;80.70
74790;BME280;63318;52.406;13.416;2022-09-09T02:59:06;100643.83;;;13.72;80.88
74790;BME280;63318;52.406;13.416;2022-09-09T03:01:34;100645.69;;;13.70;80.70
74790;BME280;63318;52.406;13.416;2022-09-09T03:04:03;100645.84;;;13.68;80.78
74790;BME280;63318;52.406;13.416;2022-09-09T03:06:31;100645.78;;;13.67;80.63
74790;BME280;63318;52.406;13.416;2022-09-09T03:08:59;100649.25;;;13.76;80.38
74790;BME280;63318;52.406;13.416;2022-09-09T03:11:28;100655.45;;;13.75;80.31
74790;BME280;63318;52.406;13.416;2022-09-09T03:13:56;100657.27;;;13.74;80.34
74790;BME280;63318;52.406;13.416;2022-09-09T03:16:24;100658.96;;;13.73;80.70
74790;BME280;63318;52.406;13.416;2022-09-09T03:18:52;100662.23;;;13.74;80.70
74790;BME280;63318;52.406;13.416;2022-09-09T03:21:21;100658.63;;;13.77;80.79
74790;BME280;63318;52.406;13.416;2022-09-09T03:23:49;100662.05;;;13.80;81.16
74790;BME280;63318;52.406;13.416;2022-09-09T03:26:17;100669.87;;;13.85;81.12
74790;BME280;63318;52.406;13.416;2022-09-09T03:28:45;100667.98;;;13.84;81.24
74790;BME280;63318;52.406;13.416;2022-09-09T03:31:13;100669.77;;;13.83;81.38
74790;BME280;63318;52.406;13.416;2022-09-09T03:33:42;100671.88;;;13.84;81.26
74790;BME280;63318;52.406;13.416;2022-09-09T03:36:10;100672.38;;;13.85;81.18
74790;BME280;63318;52.406;13.416;2022-09-09T03:38:38;100672.52;;;13.82;81.07
74790;BME280;63318;52.406;13.416;2022-09-09T03:41:07;100670.17;;;13.78;81.08
74790;BME280;63318;52.406;13.416;2022-09-09T03:43:35;100671.29;;;13.74;81.16
74790;BME280;63318;52.406;13.416;2022-09-09T03:46:04;100672.95;;;13.70;81.03
74790;BME280;63318;52.406;13.416;2022-09-09T03:48:32;100669.59;;;13.70;80.99
74790;BME280;63318;52.406;13.416;2022-09-09T03:51:00;100671.40;;;13.78;80.58
74790;BME280;63318;52.406;13.416;2022-09-09T03:53:29;100669.31;;;13.75;80.60
74790;BME280;63318;52.406;13.416;2022-09-09T03:55:58;100666.55;;;13.72;80.86
74790;BME280;63318;52.406;13.416;2022-09-09T03:58:26;100666.00;;;13.71;81.05
74790;BME280;63318;52.406;13.416;2022-09-09T04:00:57;100664.33;;;13.71;80.98
74790;BME280;63318;52.406;13.416;2022-09-09T04:03:26;100664.10;;;13.71;81.11
74790;BME280;63318;52.406;13.416;2022-09-09T04:05:55;100661.36;;;13.72;81.17
74790;BME280;63318;52.406;13.416;2022-09-09T04:08:24;100665.08;;;13.69;81.45
74790;BME280;63318;52.406;13.416;2022-09-09T04:10:53;100663.58;;;13.68;81.34
74790;BME280;63318;52.406;13.416;2022-09-09T04:13:22;100659.89;;;13.69;81.28
74790;BME280;63318;52.406;13.416;2022-09-09T04:15:53;100660.34;;;13.68;81.23
74790;BME280;63318;52.406;13.416;2022-09-09T04:18:23;100664.28;;;13.65;81.17
74790;BME280;63318;52.406;13.416;2022-09-09T04:20:52;100668.80;;;13.61;81.15
74790;BME280;63318;52.406;13.416;2022-09-09T04:23:20;100670.81;;;13.56;81.09
74790;BME280;63318;52.406;13.416;2022-09-09T04:25:50;100670.33;;;13.50;81.17
74790;BME280;63318;52.406;13.416;2022-09-09T04:28:20;100673.50;;;13.50;81.12
74790;BME280;63318;52.406;13.416;2022-09-09T04:30:49;100675.80;;;13.59;80.65
74790;BME280;63318;52.406;13.416;2022-09-09T04:33:17;100674.26;;;13.57;80.65
74790;BME280;63318;52.406;13.416;2022-09-09T04:35:47;100676.10;;;13.57;80.99
74790;BME280;63318;52.406;13.416;2022-09-09T04:38:16;100679.95;;;13.58;81.15
74790;BME280;63318;52.406;13.416;2022-09-09T04:40:45;100684.27;;;13.60;81.16
74790;BME280;63318;52.406;13.416;2022-09-09T04:43:14;100686.02;;;13.64;81.23
74790;BME280;63318;52.406;13.416;2022-09-09T04:45:43;100690.04;;;13.69;81.22
74790;BME280;63318;52.406;13.416;2022-09-09T04:48:11;100693.11;;;13.69;81.44
74790;BME280;63318;52.406;13.416;2022-09-09T04:50:40;100693.45;;;13.69;81.52
74790;BME280;63318;52.406;13.416;2022-09-09T04:53:08;100692.77;;;13.69;81.42
74790;BME280;63318;52.406;13.416;2022-09-09T04:55:37;100696.79;;;13.70;81.40
74790;BME280;63318;52.406;13.416;2022-09-09T04:58:07;100693.39;;;13.69;81.43
74790;BME280;63318;52.406;13.416;2022-09-09T05:00:36;100693.96;;;13.68;81.56
74790;BME280;63318;52.406;13.416;2022-09-09T05:03:05;100694.25;;;13.68;81.46
74790;BME280;63318;52.406;13.416;2022-09-09T05:05:34;100694.70;;;13.72;81.34
74790;BME280;63318;52.406;13.416;2022-09-09T05:08:04;100700.60;;;13.83;80.90
74790;BME280;63318;52.406;13.416;2022-09-09T05:10:32;100699.24;;;13.85;81.05
74790;BME280;63318;52.406;13.416;2022-09-09T05:13:01;100699.20;;;13.88;81.15
74790;BME280;63318;52.406;13.416;2022-09-09T05:15:29;100701.00;;;13.92;81.44
74790;BME280;63318;52.406;13.416;2022-09-09T05:18:00;100701.10;;;13.97;81.55
74790;BME280;63318;52.406;13.416;2022-09-09T05:20:28;100699.73;;;14.05;81.84
74790;BME280;63318;52.406;13.416;2022-09-09T05:22:57;100698.98;;;14.15;81.99
74790;BME280;63318;52.406;13.416;2022-09-09T05:25:25;100704.77;;;14.26;81.96
74790;BME280;63318;52.406;13.416;2022-09-09T05:27:54;100704.33;;;14.31;82.07
74790;BME280;63318;52.406;13.416;2022-09-09T05:30:22;100700.42;;;14.39;81.98
74790;BME280;63318;52.406;13.416;2022-09-09T05:32:51;100700.48;;;14.47;82.00
74790;BME280;63318;52.406;13.416;2022-09-09T05:35:19;100700.48;;;14.55;81.84
74790;BME280;63318;52.406;13.416;2022-09-09T05:37:47;100698.79;;;14.60;81.92
74790;BME280;63318;52.406;13.416;2022-09-09T05:40:15;100701.56;;;14.65;81.95
74790;BME280;63318;52.406;13.416;2022-09-09T05:42:44;100701.96;;;14.68;81.88
74790;BME280;63318;52.406;13.416;2022-09-09T05:45:12;100703.01;;;14.77;81.77
74790;BME280;63318;52.406;13.416;2022-09-09T05:47:40;100699.67;;;14.92;81.22
74790;BME280;63318;52.406;13.416;2022-09-09T05:50:09;100705.04;;;15.00;81.27
74790;BME280;63318;52.406;13.416;2022-09-09T05:52:37;100707.92;;;15.08;81.44
74790;BME280;63318;52.406;13.416;2022-09-09T05:55:08;100711.11;;;15.15;81.58
74790;BME280;63318;52.406;13.416;2022-09-09T05:57:36;100712.42;;;15.27;81.65
74790;BME280;63318;52.406;13.416;2022-09-09T06:00:06;100713.74;;;15.42;81.69
74790;BME280;63318;52.406;13.416;2022-09-09T06:02:34;100719.44;;;15.56;81.78
74790;BME280;63318;52.406;13.416;2022-09-09T06:05:02;100718.21;;;15.68;81.72
74790;BME280;63318;52.406;13.416;2022-09-09T06:07:30;100719.27;;;15.79;81.41
74790;BME280;63318;52.406;13.416;2022-09-09T06:09:58;100719.61;;;15.91;81.27
74790;BME280;63318;52.406;13.416;2022-09-09T06:12:27;100724.83;;;16.02;81.21
74790;BME280;63318;52.406;13.416;2022-09-09T06:14:55;100723.72;;;16.12;80.69
74790;BME280;63318;52.406;13.416;2022-09-09T06:17:23;100722.50;;;16.22;80.67
74790;BME280;63318;52.406;13.416;2022-09-09T06:19:51;100725.88;;;16.35;80.32
74790;BME280;63318;52.406;13.416;2022-09-09T06:22:19;100724.40;;;16.47;80.23
74790;BME280;63318;52.406;13.416;2022-09-09T06:24:48;100728.20;;;16.61;80.16
74790;BME280;63318;52.406;13.416;2022-09-09T06:27:16;100730.25;;;16.79;79.79
74790;BME280;63318;52.406;13.416;2022-09-09T06:29:44;100731.00;;;16.95;79.15
74790;BME280;63318;52.406;13.416;2022-09-09T06:32:12;100729.30;;;16.93;79.05
74790;BME280;63318;52.406;13.416;2022-09-09T06:34:40;100733.02;;;16.98;79.25
74790;BME280;63318;52.406;13.416;2022-09-09T06:37:08;100730.16;;;17.09;79.27
74790;BME280;63318;52.406;13.416;2022-09-09T06:39:37;100733.00;;;17.17;79.13
74790;BME280;63318;52.406;13.416;2022-09-09T06:42:05;100733.16;;;17.30;78.94
74790;BME280;63318;52.406;13.416;2022-09-09T06:44:33;100729.18;;;17.41;78.86
74790;BME280;63318;52.406;13.416;2022-09-09T06:47:02;100726.81;;;17.48;78.76
74790;BME280;63318;52.406;13.416;2022-09-09T06:49:30;100721.39;;;17.56;78.39
74790;BME280;63318;52.406;13.416;2022-09-09T06:51:58;100726.12;;;17.70;78.07
74790;BME280;63318;52.406;13.416;2022-09-09T06:54:26;100726.11;;;17.83;77.55
74790;BME280;63318;52.406;13.416;2022-09-09T06:56:54;100724.12;;;17.90;77.15
74790;BME280;63318;52.406;13.416;2022-09-09T06:59:22;100726.73;;;17.93;77.00
74790;BME280;63318;52.406;13.416;2022-09-09T07:01:51;100723.36;;;18.01;76.94
74790;BME280;63318;52.406;13.416;2022-09-09T07:04:19;100722.40;;;18.15;76.61
74790;BME280;63318;52.406;13.416;2022-09-09T07:06:47;100730.84;;;18.26;76.03
74790;BME280;63318;52.406;13.416;2022-09-09T07:09:16;100730.35;;;18.37;76.01
74790;BME280;63318;52.406;13.416;2022-09-09T07:11:46;100729.89;;;18.55;76.01
74790;BME280;63318;52.406;13.416;2022-09-09T07:14:15;100731.06;;;18.76;75.28
74790;BME280;63318;52.406;13.416;2022-09-09T07:16:44;100731.11;;;18.87;75.22
74790;BME280;63318;52.406;13.416;2022-09-09T07:19:13;100732.88;;;18.96;75.36
74790;BME280;63318;52.406;13.416;2022-09-09T07:21:43;100732.31;;;19.08;75.41
74790;BME280;63318;52.406;13.416;2022-09-09T07:24:11;100733.96;;;19.23;75.23
74790;BME280;63318;52.406;13.416;2022-09-09T07:26:40;100733.32;;;19.32;74.63
74790;BME280;63318;52.406;13.416;2022-09-09T07:29:09;100732.25;;;19.40;74.32
74790;BME280;63318;52.406;13.416;2022-09-09T07:31:39;100734.63;;;19.53;74.58
74790;BME280;63318;52.406;13.416;2022-09-09T07:34:07;100735.06;;;19.69;73.52
74790;BME280;63318;52.406;13.416;2022-09-09T07:36:37;100735.41;;;19.86;73.47
74790;BME280;63318;52.406;13.416;2022-09-09T07:39:08;100739.10;;;20.02;73.10
74790;BME280;63318;52.406;13.416;2022-09-09T07:41:38;100741.23;;;20.21;72.58
74790;BME280;63318;52.406;13.416;2022-09-09T07:44:08;100734.78;;;20.33;72.00
74790;BME280;63318;52.406;13.416;2022-09-09T07:46:38;100738.79;;;20.44;71.59
74790;BME280;63318;52.406;13.416;2022-09-09T07:49:07;100739.86;;;20.54;71.54
74790;BME280;63318;52.406;13.416;2022-09-09T07:51:37;100744.51;;;20.59;70.09
74790;BME280;63318;52.406;13.416;2022-09-09T07:54:07;100745.44;;;20.64;70.36
74790;BME280;63318;52.406;13.416;2022-09-09T07:56:37;100744.90;;;20.71;70.45
74790;BME280;63318;52.406;13.416;2022-09-09T07:59:06;100747.98;;;20.73;69.68
74790;BME280;63318;52.406;13.416;2022-09-09T08:01:36;100752.45;;;20.84;69.76
74790;BME280;63318;52.406;13.416;2022-09-09T08:04:06;100757.52;;;20.96;69.85
74790;BME280;63318;52.406;13.416;2022-09-09T08:06:38;100760.30;;;21.07;68.96
74790;BME280;63318;52.406;13.416;2022-09-09T08:09:08;100757.34;;;21.19;68.18
74790;BME280;63318;52.406;13.416;2022-09-09T08:11:37;100761.00;;;21.30;68.63
74790;BME280;63318;52.406;13.416;2022-09-09T08:14:07;100764.86;;;21.38;68.69
74790;BME280;63318;52.406;13.416;2022-09-09T08:16:37;100768.02;;;21.43;68.16
74790;BME280;63318;52.406;13.416;2022-09-09T08:19:06;100768.14;;;21.48;68.42
74790;BME280;63318;52.406;13.416;2022-09-09T08:21:36;100764.38;;;21.58;68.64
74790;BME280;63318;52.406;13.416;2022-09-09T08:24:06;100764.38;;;21.64;67.79
74790;BME280;63318;52.406;13.416;2022-09-09T08:26:36;100763.54;;;21.65;67.92
74790;BME280;63318;52.406;13.416;2022-09-09T08:29:06;100763.14;;;21.65;67.45
74790;BME280;63318;52.406;13.416;2022-09-09T08:31:37;100760.52;;;21.62;66.61
74790;BME280;63318;52.406;13.416;2022-09-09T08:34:06;100764.28;;;21.53;66.46
74790;BME280;63318;52.406;13.416;2022-09-09T08:36:36;100764.73;;;21.41;66.55
74790;BME280;63318;52.406;13.416;2022-09-09T08:39:06;100763.38;;;21.33;67.24
74790;BME280;63318;52.406;13.416;2022-09-09T08:41:43;100767.59;;;21.25;67.08
74790;BME280;63318;52.406;13.416;2022-09-09T08:44:19;100768.64;;;21.19;67.20
74790;BME280;63318;52.406;13.416;2022-09-09T08:46:56;100768.23;;;21.17;67.41
74790;BME280;63318;52.406;13.416;2022-09-09T08:49:43;100773.90;;;21.15;67.31
74790;BME280;63318;52.406;13.416;2022-09-09T08:52:18;100771.19;;;21.12;66.92
74790;BME280;63318;52.406;13.416;2022-09-09T08:54:48;100774.23;;;21.11;66.79
74790;BME280;63318;52.406;13.416;2022-09-09T08:57:23;100772.72;;;21.12;66.86
74790;BME280;63318;52.406;13.416;2022-09-09T08:59:53;100770.99;;;21.17;66.77
74790;BME280;63318;52.406;13.416;2022-09-09T09:02:27;100774.59;;;21.27;66.65
74790;BME280;63318;52.406;13.416;2022-09-09T09:05:12;100775.67;;;21.38;66.65
74790;BME280;63318;52.406;13.416;2022-09-09T09:07:55;100776.20;;;21.52;65.85
74790;BME280;63318;52.406;13.416;2022-09-09T09:10:37;100777.42;;;21.57;65.04
74790;BME280;63318;52.406;13.416;2022-09-09T09:13:17;100775.54;;;21.66;65.65
74790;BME280;63318;52.406;13.416;2022-09-09T09:15:48;100776.21;;;21.93;65.40
74790;BME280;63318;52.406;13.416;2022-09-09T09:18:18;100772.10;;;22.32;65.19
74790;BME280;63318;52.406;13.416;2022-09-09T09:20:53;100772.73;;;22.59;64.74
74790;BME280;63318;52.406;13.416;2022-09-09T09:23:25;100769.46;;;22.83;64.01
74790;BME280;63318;52.406;13.416;2022-09-09T09:25:58;100769.66;;;23.01;63.49
74790;BME280;63318;52.406;13.416;2022-09-09T09:28:29;100765.41;;;23.20;63.21
74790;BME280;63318;52.406;13.416;2022-09-09T09:31:01;100764.21;;;23.39;62.18
74790;BME280;63318;52.406;13.416;2022-09-09T09:33:37;100762.62;;;23.56;60.94
74790;BME280;63318;52.406;13.416;2022-09-09T09:36:07;100757.88;;;23.71;60.75
74790;BME280;63318;52.406;13.416;2022-09-09T09:38:36;100760.08;;;23.89;60.80
74790;BME280;63318;52.406;13.416;2022-09-09T09:41:05;100762.73;;;24.05;60.28
74790;BME280;63318;52.406;13.416;2022-09-09T09:43:35;100758.24;;;24.22;60.14
74790;BME280;63318;52.406;13.416;2022-09-09T09:46:17;100757.71;;;24.36;59.69
74790;BME280;63318;52.406;13.416;2022-09-09T09:48:57;100759.52;;;24.49;59.10
74790;BME280;63318;52.406;13.416;2022-09-09T09:51:26;100763.59;;;24.66;59.32
74790;BME280;63318;52.406;13.416;2022-09-09T09:54:07;100758.44;;;24.76;58.06
74790;BME280;63318;52.406;13.416;2022-09-09T09:56:38;100760.85;;;24.89;58.31
74790;BME280;63318;52.406;13.416;2022-09-09T09:59:18;100753.88;;;25.03;57.37
74790;BME280;63318;52.406;13.416;2022-09-09T10:01:47;100758.38;;;25.08;57.14
74790;BME280;63318;52.406;13.416;2022-09-09T10:04:18;100759.27;;;25.11;57.71
74790;BME280;63318;52.406;13.416;2022-09-09T10:06:47;100759.30;;;25.12;57.23
74790;BME280;63318;52.406;13.416;2022-09-09T10:09:24;100762.02;;;25.21;57.15
74790;BME280;63318;52.406;13.416;2022-09-09T10:11:59;100764.40;;;25.33;57.11
74790;BME280;63318;52.406;13.416;2022-09-09T10:14:34;100765.05;;;25.44;57.33
74790;BME280;63318;52.406;13.416;2022-09-09T10:17:16;100764.67;;;25.52;57.19
74790;BME280;63318;52.406;13.416;2022-09-09T10:19:56;100767.20;;;25.49;54.80
74790;BME280;63318;52.406;13.416;2022-09-09T10:22:30;100769.13;;;25.37;55.40
74790;BME280;63318;52.406;13.416;2022-09-09T10:25:26;100771.59;;;25.35;55.76
74790;BME280;63318;52.406;13.416;2022-09-09T10:28:16;100766.85;;;25.30;55.04
74790;BME280;63318;52.406;13.416;2022-09-09T10:30:58;100767.78;;;25.25;55.69
74790;BME280;63318;52.406;13.416;2022-09-09T10:33:33;100769.23;;;25.27;55.41
74790;BME280;63318;52.406;13.416;2022-09-09T10:36:11;100766.58;;;25.29;55.94
74790;BME280;63318;52.406;13.416;2022-09-09T10:38:42;100767.31;;;25.29;56.47
74790;BME280;63318;52.406;13.416;2022-09-09T10:41:18;100769.92;;;25.26;55.35
74790;BME280;63318;52.406;13.416;2022-09-09T10:44:17;100766.14;;;25.21;55.77
74790;BME280;63318;52.406;13.416;2022-09-09T10:46:59;100763.97;;;25.14;55.19
74790;BME280;63318;52.406;13.416;2022-09-09T10:49:56;100763.27;;;25.27;55.47
74790;BME280;63318;52.406;13.416;2022-09-09T10:52:30;100763.52;;;25.52;54.35
74790;BME280;63318;52.406;13.416;2022-09-09T10:55:02;100761.59;;;25.60;53.16
74790;BME280;63318;52.406;13.416;2022-09-09T10:57:39;100760.91;;;25.67;53.32
74790;BME280;63318;52.406;13.416;2022-09-09T11:00:17;100760.67;;;25.79;53.57
74790;BME280;63318;52.406;13.416;2022-09-09T11:02:49;100761.20;;;25.94;53.60
74790;BME280;63318;52.406;13.416;2022-09-09T11:05:21;100766.84;;;25.98;53.14
74790;BME280;63318;52.406;13.416;2022-09-09T11:07:57;100764.54;;;26.06;52.96
74790;BME280;63318;52.406;13.416;2022-09-09T11:10:33;100761.41;;;26.15;52.84
74790;BME280;63318;52.406;13.416;2022-09-09T11:13:09;100760.70;;;26.17;52.31
74790;BME280;63318;52.406;13.416;2022-09-09T11:15:44;100760.85;;;26.29;52.45
74790;BME280;63318;52.406;13.416;2022-09-09T11:18:18;100756.47;;;26.43;52.20
74790;BME280;63318;52.406;13.416;2022-09-09T11:20:50;100764.50;;;26.41;51.80
74790;BME280;63318;52.406;13.416;2022-09-09T11:23:24;100760.54;;;26.43;51.51
74790;BME280;63318;52.406;13.416;2022-09-09T11:25:57;100763.66;;;26.37;50.60
74790;BME280;63318;52.406;13.416;2022-09-09T11:28:37;100763.83;;;26.23;51.03
74790;BME280;63318;52.406;13.416;2022-09-09T11:31:20;100764.55;;;26.28;51.57
74790;BME280;63318;52.406;13.416;2022-09-09T11:34:10;100761.27;;;26.35;51.88
74790;BME280;63318;52.406;13.416;2022-09-09T11:40:07;100758.23;;;26.60;51.69
74790;BME280;63318;52.406;13.416;2022-09-09T11:42:37;100756.15;;;26.59;51.00
74790;BME280;63318;52.406;13.416;2022-09-09T11:45:19;100753.14;;;26.58;50.32
74790;BME280;63318;52.406;13.416;2022-09-09T11:47:55;100747.70;;;26.64;50.16
74790;BME280;63318;52.406;13.416;2022-09-09T11:50:33;100748.67;;;26.64;49.71
74790;BME280;63318;52.406;13.416;2022-09-09T11:53:20;100749.89;;;26.54;49.89
74790;BME280;63318;52.406;13.416;2022-09-09T11:56:05;100745.46;;;26.47;49.50
74790;BME280;63318;52.406;13.416;2022-09-09T11:58:43;100740.16;;;26.56;50.05
74790;BME280;63318;52.406;13.416;2022-09-09T12:01:29;100736.25;;;26.67;49.84
74790;BME280;63318;52.406;13.416;2022-09-09T12:04:09;100736.65;;;26.66;49.30
74790;BME280;63318;52.406;13.416;2022-09-09T12:06:45;100729.47;;;26.71;49.75
74790;BME280;63318;52.406;13.416;2022-09-09T12:09:22;100727.89;;;26.77;49.36
74790;BME280;63318;52.406;13.416;2022-09-09T12:11:52;100719.70;;;26.84;48.90
74790;BME280;63318;52.406;13.416;2022-09-09T12:14:36;100715.59;;;26.93;48.96
74790;BME280;63318;52.406;13.416;2022-09-09T12:17:20;100715.67;;;26.99;48.81
74790;BME280;63318;52.406;13.416;2022-09-09T12:19:59;100713.88;;;26.94;48.06
74790;BME280;63318;52.406;13.416;2022-09-09T12:22:33;100711.94;;;26.94;48.65
74790;BME280;63318;52.406;13.416;2022-09-09T12:25:14;100710.30;;;26.94;48.68
74790;BME280;63318;52.406;13.416;2022-09-09T12:27:49;100709.20;;;26.91;48.06
74790;BME280;63318;52.406;13.416;2022-09-09T12:30:25;100708.09;;;26.82;47.49
74790;BME280;63318;52.406;13.416;2022-09-09T12:33:06;100709.68;;;26.75;48.16
74790;BME280;63318;52.406;13.416;2022-09-09T12:35:36;100710.07;;;26.69;47.70
74790;BME280;63318;52.406;13.416;2022-09-09T12:38:06;100705.23;;;26.63;47.93
74790;BME280;63318;52.406;13.416;2022-09-09T12:40:38;100701.59;;;26.53;47.17
74790;BME280;63318;52.406;13.416;2022-09-09T12:43:19;100700.42;;;26.47;47.87
74790;BME280;63318;52.406;13.416;2022-09-09T12:45:48;100695.04;;;26.31;47.36
74790;BME280;63318;52.406;13.416;2022-09-09T12:48:18;100692.66;;;26.21;48.00
74790;BME280;63318;52.406;13.416;2022-09-09T12:50:50;100698.45;;;26.17;48.38
74790;BME280;63318;52.406;13.416;2022-09-09T12:53:24;100695.27;;;26.12;47.83
74790;BME280;63318;52.406;13.416;2022-09-09T12:55:55;100699.25;;;26.04;47.96
74790;BME280;63318;52.406;13.416;2022-09-09T12:58:24;100703.27;;;25.92;47.58
74790;BME280;63318;52.406;13.416;2022-09-09T13:00:55;100707.48;;;25.79;48.15
74790;BME280;63318;52.406;13.416;2022-09-09T13:03:24;100709.56;;;25.73;48.40
74790;BME280;63318;52.406;13.416;2022-09-09T13:05:53;100711.92;;;25.73;49.44
74790;BME280;63318;52.406;13.416;2022-09-09T13:08:21;100713.69;;;25.76;49.55
74790;BME280;63318;52.406;13.416;2022-09-09T13:10:52;100713.48;;;25.78;49.37